createdAt,value
2019-06-20T00:01:49.121Z,2.90
2019-06-20T00:04:15.875Z,2.87
2019-06-20T00:06:42.638Z,2.97
2019-06-20T00:09:09.426Z,2.77
2019-06-20T00:11:36.475Z,2.60
2019-06-20T00:14:03.425Z,2.70
2019-06-20T00:16:30.294Z,3.10
2019-06-20T00:18:57.106Z,2.50
2019-06-20T00:21:23.876Z,2.90
2019-06-20T00:23:50.816Z,3.20
2019-06-20T00:26:17.578Z,2.37
2019-06-20T00:28:44.367Z,2.53
2019-06-20T00:31:11.282Z,2.23
2019-06-20T00:33:38.065Z,2.67
2019-06-20T00:36:04.855Z,2.90
2019-06-20T00:38:31.666Z,2.60
2019-06-20T00:40:58.539Z,2.77
2019-06-20T00:43:25.331Z,2.57
2019-06-20T00:45:52.164Z,2.70
2019-06-20T00:48:18.945Z,2.40
2019-06-20T00:50:45.728Z,2.40
2019-06-20T00:53:12.549Z,2.27
2019-06-20T00:55:39.311Z,2.63
2019-06-20T00:58:06.110Z,2.40
2019-06-20T01:00:33.159Z,2.60
2019-06-20T01:02:59.908Z,2.60
2019-06-20T01:05:26.678Z,2.53
2019-06-20T01:07:54.064Z,2.50
2019-06-20T01:10:21.616Z,2.17
2019-06-20T01:12:48.357Z,2.70
2019-06-20T01:15:15.572Z,2.70
2019-06-20T01:17:42.327Z,2.23
2019-06-20T01:20:11.308Z,2.53
2019-06-20T01:22:38.150Z,2.37
2019-06-20T01:25:08.071Z,2.40
2019-06-20T01:27:36.312Z,2.43
2019-06-20T01:30:07.439Z,2.50
2019-06-20T01:32:34.179Z,2.30
2019-06-20T01:35:01.041Z,2.50
2019-06-20T01:37:27.892Z,2.17
2019-06-20T01:39:54.638Z,1.70
2019-06-20T01:42:21.373Z,2.03
2019-06-20T01:44:48.266Z,2.30
2019-06-20T01:47:14.997Z,2.20
2019-06-20T01:49:41.774Z,2.07
2019-06-20T01:52:08.653Z,2.03
2019-06-20T01:54:35.377Z,2.07
2019-06-20T01:57:02.127Z,2.10
2019-06-20T01:59:29.037Z,1.80
2019-06-20T02:01:55.768Z,1.80
2019-06-20T02:04:22.518Z,2.13
2019-06-20T02:06:49.409Z,1.80
2019-06-20T02:09:16.157Z,1.90
2019-06-20T02:11:42.891Z,2.23
2019-06-20T02:14:09.801Z,2.00
2019-06-20T02:16:36.535Z,1.73
2019-06-20T02:19:03.780Z,1.90
2019-06-20T02:21:30.770Z,1.80
2019-06-20T02:23:57.515Z,2.03
2019-06-20T02:26:24.279Z,1.87
2019-06-20T02:28:51.161Z,1.90
2019-06-20T02:31:17.924Z,1.90
2019-06-20T02:33:44.623Z,1.90
2019-06-20T02:36:11.457Z,2.00
2019-06-20T02:38:38.195Z,2.10
2019-06-20T02:41:04.944Z,1.90
2019-06-20T02:43:31.808Z,2.17
2019-06-20T02:45:58.877Z,2.03
2019-06-20T02:48:25.610Z,2.10
2019-06-20T02:50:52.494Z,2.17
2019-06-20T02:53:19.240Z,2.00
2019-06-20T02:55:45.961Z,1.87
2019-06-20T02:58:12.756Z,2.00
2019-06-20T03:00:55.209Z,1.80
2019-06-20T03:03:22.192Z,2.23
2019-06-20T03:05:48.946Z,1.80
2019-06-20T03:08:15.710Z,1.80
2019-06-20T03:10:42.689Z,1.97
2019-06-20T03:13:09.672Z,2.00
2019-06-20T03:15:36.505Z,2.00
2019-06-20T03:18:03.312Z,2.07
2019-06-20T03:20:30.053Z,1.83
2019-06-20T03:22:56.955Z,2.47
2019-06-20T03:25:23.956Z,2.47
2019-06-20T03:27:50.708Z,3.00
2019-06-20T03:30:18.264Z,3.20
2019-06-20T03:32:45.145Z,3.10
2019-06-20T03:35:12.161Z,2.63
2019-06-20T03:37:38.899Z,2.77
2019-06-20T03:40:06.109Z,2.50
2019-06-20T03:42:32.845Z,2.13
2019-06-20T03:45:02.514Z,1.90
2019-06-20T03:47:28.264Z,2.20
2019-06-20T03:49:55.011Z,1.90
2019-06-20T03:52:21.736Z,2.17
2019-06-20T03:54:48.635Z,2.50
2019-06-20T03:57:15.378Z,2.57
2019-06-20T03:59:42.101Z,2.20
2019-06-20T04:02:08.909Z,1.97
2019-06-20T04:04:35.648Z,2.33
2019-06-20T04:07:02.398Z,2.50
2019-06-20T04:09:29.303Z,2.77
2019-06-20T04:11:57.882Z,2.60
2019-06-20T04:14:24.581Z,2.43
2019-06-20T04:16:51.403Z,1.87
2019-06-20T04:19:18.154Z,2.23
2019-06-20T04:21:44.981Z,2.37
2019-06-20T04:24:11.711Z,4.00
2019-06-20T04:26:38.426Z,3.40
2019-06-20T04:29:05.448Z,2.67
2019-06-20T04:31:32.330Z,2.70
2019-06-20T04:33:59.072Z,4.13
2019-06-20T04:36:25.822Z,6.60
2019-06-20T04:38:52.630Z,6.80
2019-06-20T04:41:19.371Z,7.43
2019-06-20T04:43:46.096Z,7.00
2019-06-20T04:46:12.926Z,6.57
2019-06-20T04:48:39.680Z,4.70
2019-06-20T04:51:06.435Z,4.50
2019-06-20T04:53:33.335Z,4.50
2019-06-20T04:56:00.088Z,5.13
2019-06-20T04:58:26.844Z,5.00
2019-06-20T05:00:53.664Z,5.57
2019-06-20T05:03:20.399Z,5.67
2019-06-20T05:05:47.115Z,6.03
2019-06-20T05:08:14.002Z,5.53
2019-06-20T05:10:40.752Z,5.93
2019-06-20T05:13:07.490Z,7.13
2019-06-20T05:15:48.117Z,7.10
2019-06-20T05:18:03.031Z,6.97
2019-06-20T05:20:29.747Z,6.33
2019-06-20T05:22:56.700Z,5.90
2019-06-20T05:25:23.429Z,14.67
2019-06-20T05:27:50.178Z,31.73
2019-06-20T05:30:17.860Z,14.37
2019-06-20T05:32:44.627Z,7.00
2019-06-20T05:35:11.553Z,4.80
2019-06-20T05:37:38.373Z,4.47
2019-06-20T05:40:07.728Z,4.23
2019-06-20T05:42:34.458Z,4.70
2019-06-20T05:45:01.657Z,4.40
2019-06-20T05:47:28.391Z,3.10
2019-06-20T05:49:55.127Z,2.87
2019-06-20T05:52:21.940Z,3.00
2019-06-20T05:54:48.716Z,3.17
2019-06-20T05:57:18.400Z,3.10
2019-06-20T05:59:45.059Z,2.83
2019-06-20T06:02:11.806Z,2.93
2019-06-20T06:04:38.557Z,2.87
2019-06-20T06:07:05.332Z,2.90
2019-06-20T06:09:32.060Z,2.83
2019-06-20T06:11:58.836Z,2.80
2019-06-20T06:14:25.711Z,2.60
2019-06-20T06:16:52.457Z,3.30
2019-06-20T06:19:19.197Z,2.60
2019-06-20T06:21:46.123Z,2.33
2019-06-20T06:24:12.897Z,2.20
2019-06-20T06:26:39.696Z,2.47
2019-06-20T06:29:06.761Z,2.33
2019-06-20T06:31:33.588Z,2.47
2019-06-20T06:34:00.333Z,2.17
2019-06-20T06:36:27.255Z,2.00
2019-06-20T06:38:53.986Z,2.13
2019-06-20T06:41:20.723Z,2.20
2019-06-20T06:43:47.610Z,2.00
2019-06-20T06:46:14.388Z,2.57
2019-06-20T06:48:41.123Z,2.30
2019-06-20T06:51:07.965Z,2.33
2019-06-20T06:53:34.716Z,2.10
2019-06-20T06:56:01.453Z,2.30
2019-06-20T06:58:28.356Z,2.77
2019-06-20T07:00:55.121Z,2.47
2019-06-20T07:03:21.878Z,2.57
2019-06-20T07:05:48.797Z,2.10
2019-06-20T07:08:15.566Z,2.50
2019-06-20T07:10:42.618Z,2.93
2019-06-20T07:13:09.507Z,2.60
2019-06-20T07:15:36.349Z,2.40
2019-06-20T07:18:03.291Z,2.63
2019-06-20T07:20:30.228Z,2.23
2019-06-20T07:22:56.989Z,2.47
2019-06-20T07:25:23.769Z,2.37
2019-06-20T07:27:50.657Z,2.30
2019-06-20T07:30:19.521Z,2.20
2019-06-20T07:32:46.283Z,2.70
2019-06-20T07:35:13.557Z,2.70
2019-06-20T07:37:40.300Z,2.37
2019-06-20T07:40:07.991Z,2.30
2019-06-20T07:42:34.972Z,2.20
2019-06-20T07:45:03.605Z,2.40
2019-06-20T07:47:30.353Z,2.10
2019-06-20T07:49:57.257Z,2.03
2019-06-20T07:52:23.998Z,2.30
2019-06-20T07:54:50.740Z,2.30
2019-06-20T07:57:17.548Z,2.20
2019-06-20T07:59:44.275Z,2.27
2019-06-20T08:02:11.023Z,2.37
2019-06-20T08:04:37.815Z,2.50
2019-06-20T08:07:04.592Z,2.47
2019-06-20T08:09:44.423Z,2.30
2019-06-20T08:11:59.938Z,2.47
2019-06-20T08:14:26.703Z,2.20
2019-06-20T08:16:53.459Z,2.10
2019-06-20T08:19:20.255Z,2.70
2019-06-20T08:21:46.988Z,2.43
2019-06-20T08:24:13.708Z,2.33
2019-06-20T08:26:40.648Z,2.90
2019-06-20T08:29:20.382Z,2.30
2019-06-20T08:31:35.920Z,2.80
2019-06-20T08:34:04.346Z,3.03
2019-06-20T08:36:31.154Z,2.50
2019-06-20T08:38:58.755Z,2.27
2019-06-20T08:41:26.607Z,2.40
2019-06-20T08:43:53.350Z,2.30
2019-06-20T08:46:20.143Z,2.27
2019-06-20T08:48:46.946Z,2.20
2019-06-20T08:51:14.739Z,2.30
2019-06-20T08:53:41.645Z,2.00
2019-06-20T08:56:10.393Z,2.50
2019-06-20T08:58:37.125Z,2.20
2019-06-20T09:03:32.337Z,2.00
2019-06-20T09:05:59.727Z,2.03
2019-06-20T09:08:26.545Z,1.83
2019-06-20T09:10:54.332Z,2.00
2019-06-20T09:13:21.170Z,2.40
2019-06-20T09:15:47.918Z,2.00
2019-06-20T09:18:14.713Z,4.20
2019-06-20T09:20:41.533Z,2.83
2019-06-20T09:23:08.472Z,1.93
2019-06-20T09:25:37.240Z,1.90
2019-06-20T09:28:05.331Z,2.10
2019-06-20T09:30:32.589Z,1.80
2019-06-20T09:32:59.970Z,2.00
2019-06-20T09:35:26.756Z,1.83
2019-06-20T09:37:53.726Z,1.90
2019-06-20T09:40:22.107Z,2.60
2019-06-20T09:42:51.132Z,1.83
2019-06-20T09:45:18.095Z,2.70
2019-06-20T09:47:44.902Z,1.77
2019-06-20T09:50:14.028Z,1.87
2019-06-20T09:52:40.873Z,1.97
2019-06-20T09:55:08.571Z,1.93
2019-06-20T09:57:35.675Z,2.10
2019-06-20T10:00:10.658Z,2.33
2019-06-20T10:02:38.921Z,1.90
2019-06-20T10:05:06.362Z,2.13
2019-06-20T10:07:33.113Z,2.57
2019-06-20T10:10:00.021Z,2.30
2019-06-20T10:12:27.272Z,2.50
2019-06-20T10:14:54.038Z,2.40
2019-06-20T10:17:21.799Z,2.20
2019-06-20T10:19:49.813Z,2.10
2019-06-20T10:22:16.574Z,2.10
2019-06-20T10:24:45.800Z,2.00
2019-06-20T10:27:12.159Z,2.30
2019-06-20T10:29:38.973Z,2.90
2019-06-20T10:32:05.839Z,2.50
2019-06-20T10:34:32.583Z,2.37
2019-06-20T10:36:59.931Z,2.40
2019-06-20T10:39:26.704Z,2.40
2019-06-20T10:41:53.468Z,2.33
2019-06-20T10:44:20.236Z,2.20
2019-06-20T10:46:47.329Z,2.57
2019-06-20T10:49:14.093Z,2.30
2019-06-20T10:51:42.405Z,2.30
2019-06-20T10:54:09.454Z,2.20
2019-06-20T10:56:36.207Z,2.30
2019-06-20T10:59:03.670Z,2.70
2019-06-20T11:01:30.822Z,2.30
2019-06-20T11:03:57.567Z,2.23
2019-06-20T11:06:24.325Z,2.50
2019-06-20T11:08:51.213Z,2.50
2019-06-20T11:11:18.069Z,2.77
2019-06-20T11:13:44.880Z,2.50
2019-06-20T11:16:11.615Z,2.53
2019-06-20T11:18:38.807Z,2.93
2019-06-20T11:21:06.712Z,2.67
2019-06-20T11:23:33.527Z,3.17
2019-06-20T11:26:00.282Z,2.60
2019-06-20T11:28:27.370Z,3.03
2019-06-20T11:31:00.067Z,2.90
2019-06-20T11:33:22.720Z,3.03
2019-06-20T11:35:49.464Z,4.13
2019-06-20T11:38:16.346Z,4.90
2019-06-20T11:40:43.937Z,5.50
2019-06-20T11:43:10.834Z,3.40
2019-06-20T11:45:38.924Z,2.40
2019-06-20T11:48:05.996Z,4.50
2019-06-20T11:50:34.421Z,15.13
2019-06-20T11:53:01.717Z,4.93
2019-06-20T11:55:28.482Z,3.50
2019-06-20T11:57:55.336Z,3.17
2019-06-20T12:00:23.020Z,3.17
2019-06-20T12:02:50.278Z,3.00
2019-06-20T12:05:17.607Z,3.93
2019-06-20T12:07:45.615Z,3.33
2019-06-20T12:10:13.468Z,3.60
2019-06-20T12:12:41.038Z,4.00
2019-06-20T12:15:08.873Z,4.10
2019-06-20T12:17:35.738Z,4.60
2019-06-20T12:20:08.759Z,7.50
2019-06-20T12:22:35.772Z,6.40
2019-06-20T12:25:06.526Z,7.70
2019-06-20T12:27:33.307Z,5.93
2019-06-20T12:30:00.147Z,5.53
2019-06-20T12:32:26.878Z,14.17
2019-06-20T12:34:53.634Z,6.10
2019-06-20T12:37:20.536Z,4.80
2019-06-20T12:39:48.618Z,4.50
2019-06-20T12:42:15.539Z,4.77
2019-06-20T12:44:42.352Z,5.10
2019-06-20T12:47:10.597Z,5.50
2019-06-20T12:49:38.546Z,4.90
2019-06-20T12:52:05.924Z,4.60
2019-06-20T12:54:32.676Z,4.77
2019-06-20T12:56:59.438Z,4.70
2019-06-20T12:59:26.221Z,4.60
2019-06-20T13:01:52.992Z,4.63
2019-06-20T13:04:19.755Z,4.33
2019-06-20T13:06:46.976Z,5.00
2019-06-20T13:09:13.739Z,4.00
2019-06-20T13:11:40.765Z,5.23
2019-06-20T13:14:07.581Z,4.80
2019-06-20T13:16:36.139Z,5.07
2019-06-20T13:19:02.865Z,6.07
2019-06-20T13:21:29.770Z,6.20
2019-06-20T13:23:58.274Z,4.80
2019-06-20T13:26:25.072Z,4.77
2019-06-20T13:29:03.291Z,4.70
2019-06-20T13:31:21.037Z,4.37
2019-06-20T13:33:48.880Z,4.50
2019-06-20T13:36:15.816Z,3.80
2019-06-20T13:38:42.797Z,4.40
2019-06-20T13:41:09.726Z,4.87
2019-06-20T13:43:36.508Z,4.97
2019-06-20T13:46:03.254Z,5.90
2019-06-20T13:48:30.023Z,5.70
2019-06-20T13:50:56.833Z,4.83
2019-06-20T13:53:23.555Z,5.90
2019-06-20T13:55:50.458Z,6.10
2019-06-20T13:58:17.262Z,5.53
2019-06-20T14:00:45.423Z,6.07
2019-06-20T14:03:12.303Z,5.67
2019-06-20T14:05:39.692Z,6.00
2019-06-20T14:08:07.720Z,5.03
2019-06-20T14:10:34.454Z,5.73
2019-06-20T14:13:01.894Z,5.97
2019-06-20T14:15:28.614Z,4.40
2019-06-20T14:17:55.334Z,4.30
2019-06-20T14:20:22.302Z,4.10
2019-06-20T14:22:49.627Z,4.77
2019-06-20T14:25:17.692Z,4.57
2019-06-20T14:27:46.014Z,5.40
2019-06-20T14:30:13.252Z,5.30
2019-06-20T14:32:41.500Z,4.90
2019-06-20T14:35:10.198Z,5.80
2019-06-20T14:37:36.943Z,5.23
2019-06-20T14:40:07.959Z,4.77
2019-06-20T14:42:34.774Z,4.63
2019-06-20T14:45:03.546Z,4.20
2019-06-20T14:47:30.276Z,4.20
2019-06-20T14:49:57.083Z,4.13
2019-06-20T14:52:23.811Z,4.63
2019-06-20T14:54:51.724Z,5.20
2019-06-20T14:57:19.557Z,5.07
2019-06-20T14:59:46.962Z,4.83
2019-06-20T15:02:14.838Z,5.03
2019-06-20T15:04:41.790Z,5.50
2019-06-20T15:07:08.492Z,5.13
2019-06-20T15:09:35.267Z,5.90
2019-06-20T15:12:02.165Z,5.10
2019-06-20T15:14:28.881Z,5.23
2019-06-20T15:16:55.636Z,5.13
2019-06-20T15:19:22.532Z,5.50
2019-06-20T15:21:50.195Z,5.27
2019-06-20T15:24:17.076Z,5.23
2019-06-20T15:26:43.992Z,4.80
2019-06-20T15:29:10.793Z,4.83
2019-06-20T15:31:37.505Z,5.50
2019-06-20T15:34:04.346Z,5.40
2019-06-20T15:36:31.083Z,4.87
2019-06-20T15:38:57.811Z,4.97
2019-06-20T15:41:24.611Z,5.23
2019-06-20T15:43:51.788Z,5.93
2019-06-20T15:46:18.639Z,6.37
2019-06-20T15:48:45.442Z,6.60
2019-06-20T15:51:12.173Z,7.23
2019-06-20T15:53:38.921Z,6.30
2019-06-20T15:56:05.778Z,5.30
2019-06-20T15:58:32.470Z,5.20
2019-06-20T16:00:59.229Z,5.27
2019-06-20T16:03:26.045Z,6.83
2019-06-20T16:05:52.807Z,5.80
2019-06-20T16:08:19.865Z,4.73
2019-06-20T16:10:48.973Z,4.13
2019-06-20T16:13:15.695Z,4.13
2019-06-20T16:15:46.916Z,4.23
2019-06-20T16:18:13.812Z,4.53
2019-06-20T16:20:40.548Z,4.23
2019-06-20T16:23:07.295Z,4.03
2019-06-20T16:25:34.114Z,4.10
2019-06-20T16:28:00.852Z,3.87
2019-06-20T16:30:27.824Z,4.10
2019-06-20T16:32:55.247Z,4.37
2019-06-20T16:35:22.025Z,3.80
2019-06-20T16:37:48.776Z,3.50
2019-06-20T16:40:26.930Z,4.20
2019-06-20T16:42:53.661Z,4.30
2019-06-20T16:45:20.628Z,4.60
2019-06-20T16:47:50.386Z,4.17
2019-06-20T16:50:17.197Z,4.27
2019-06-20T16:52:43.919Z,4.10
2019-06-20T16:55:11.531Z,3.70
2019-06-20T16:57:38.270Z,4.33
2019-06-20T17:00:09.487Z,4.07
2019-06-20T17:02:36.311Z,4.20
2019-06-20T17:05:06.261Z,3.87
2019-06-20T17:07:33.289Z,3.70
2019-06-20T17:10:00.114Z,3.77
2019-06-20T17:12:26.860Z,4.03
2019-06-20T17:14:53.604Z,3.80
2019-06-20T17:17:20.547Z,3.80
2019-06-20T17:19:47.254Z,4.00
2019-06-20T17:22:14.129Z,3.90
2019-06-20T17:24:40.990Z,4.13
2019-06-20T17:27:07.730Z,4.10
2019-06-20T17:29:34.461Z,4.33
2019-06-20T17:32:01.278Z,4.00
2019-06-20T17:34:27.997Z,4.00
2019-06-20T17:36:54.822Z,4.80
2019-06-20T17:39:21.684Z,4.17
2019-06-20T17:41:55.100Z,4.07
2019-06-20T17:44:17.093Z,4.20
2019-06-20T17:46:44.049Z,4.40
2019-06-20T17:49:11.073Z,4.10
2019-06-20T17:51:37.833Z,5.87
2019-06-20T17:54:04.638Z,5.20
2019-06-20T17:56:31.391Z,4.57
2019-06-20T17:58:58.148Z,4.80
2019-06-20T18:01:24.950Z,4.93
2019-06-20T18:03:51.715Z,4.87
2019-06-20T18:06:18.566Z,4.80
2019-06-20T18:08:45.361Z,4.80
2019-06-20T18:11:12.109Z,5.03
2019-06-20T18:13:38.848Z,5.13
2019-06-20T18:16:05.783Z,5.03
2019-06-20T18:18:32.499Z,4.53
2019-06-20T18:20:59.241Z,4.97
2019-06-20T18:23:26.051Z,4.60
2019-06-20T18:25:52.805Z,4.97
2019-06-20T18:28:19.524Z,4.43
2019-06-20T18:30:46.445Z,4.70
2019-06-20T18:33:13.790Z,4.67
2019-06-20T18:35:40.546Z,4.27
2019-06-20T18:38:07.511Z,4.40
2019-06-20T18:40:34.265Z,4.40
2019-06-20T18:43:01.309Z,4.10
2019-06-20T18:45:28.181Z,4.83
2019-06-20T18:47:55.428Z,4.40
2019-06-20T18:50:22.482Z,4.00
2019-06-20T18:52:52.513Z,4.30
2019-06-20T18:55:18.074Z,4.43
2019-06-20T18:57:44.825Z,4.40
2019-06-20T19:00:13.074Z,4.57
2019-06-20T19:02:39.863Z,4.40
2019-06-20T19:05:08.612Z,4.20
2019-06-20T19:07:35.423Z,4.30
2019-06-20T19:10:08.760Z,4.90
2019-06-20T19:12:35.696Z,4.20
2019-06-20T19:15:07.945Z,4.37
2019-06-20T19:17:34.714Z,4.13
2019-06-20T19:20:01.691Z,4.47
2019-06-20T19:22:28.534Z,4.40
2019-06-20T19:24:55.281Z,4.17
2019-06-20T19:27:22.012Z,4.10
2019-06-20T19:29:49.798Z,4.40
2019-06-20T19:32:16.705Z,4.50
2019-06-20T19:34:43.487Z,4.83
2019-06-20T19:37:10.517Z,4.10
2019-06-20T19:39:37.267Z,4.30
2019-06-20T19:42:04.026Z,4.70
2019-06-20T19:44:30.909Z,5.07
2019-06-20T19:46:57.647Z,4.60
2019-06-20T19:49:24.377Z,4.90
2019-06-20T19:51:51.271Z,4.97
2019-06-20T19:54:18.013Z,5.20
2019-06-20T19:56:44.768Z,5.17
2019-06-20T19:59:11.765Z,5.10
2019-06-20T20:01:38.520Z,5.13
2019-06-20T20:04:05.225Z,5.50
2019-06-20T20:06:32.090Z,5.77
2019-06-20T20:08:59.461Z,5.90
2019-06-20T20:11:26.224Z,5.27
2019-06-20T20:13:53.059Z,6.13
2019-06-20T20:16:19.810Z,6.23
2019-06-20T20:18:46.545Z,5.90
2019-06-20T20:21:13.445Z,6.13
2019-06-20T20:23:40.197Z,5.50
2019-06-20T20:26:08.785Z,5.50
2019-06-20T20:28:35.657Z,5.43
2019-06-20T20:31:02.399Z,5.40
2019-06-20T20:33:29.133Z,5.50
2019-06-20T20:35:56.110Z,5.87
2019-06-20T20:38:23.448Z,5.40
2019-06-20T20:40:50.173Z,5.70
2019-06-20T20:43:17.130Z,5.27
2019-06-20T20:45:43.899Z,5.57
2019-06-20T20:48:10.734Z,5.60
2019-06-20T20:50:37.632Z,5.57
2019-06-20T20:53:04.988Z,5.73
2019-06-20T20:55:31.763Z,5.40
2019-06-20T20:57:58.583Z,5.70
2019-06-20T21:00:32.759Z,5.13
2019-06-20T21:02:59.500Z,5.53
2019-06-20T21:05:26.319Z,6.30
2019-06-20T21:07:53.075Z,5.60
2019-06-20T21:10:20.051Z,5.77
2019-06-20T21:12:46.973Z,5.43
2019-06-20T21:15:14.305Z,5.30
2019-06-20T21:17:41.050Z,5.60
2019-06-20T21:20:08.668Z,5.17
2019-06-20T21:22:35.523Z,5.07
2019-06-20T21:25:06.435Z,5.43
2019-06-20T21:27:33.260Z,5.60
2019-06-20T21:29:59.992Z,6.27
2019-06-20T21:32:26.734Z,6.13
2019-06-20T21:34:53.819Z,6.17
2019-06-20T21:37:20.559Z,6.57
2019-06-20T21:39:47.350Z,6.70
2019-06-20T21:42:14.253Z,7.17
2019-06-20T21:44:41.000Z,8.00
2019-06-20T21:47:07.731Z,6.83
2019-06-20T21:49:34.611Z,5.97
2019-06-20T21:52:01.339Z,6.03
2019-06-20T21:54:28.082Z,6.07
2019-06-20T21:56:54.978Z,5.63
2019-06-20T21:59:21.734Z,5.63
2019-06-20T22:01:48.674Z,6.57
2019-06-20T22:04:15.551Z,6.00
2019-06-20T22:06:43.425Z,5.67
2019-06-20T22:09:10.131Z,5.70
2019-06-20T22:11:36.939Z,5.50
2019-06-20T22:14:04.380Z,5.50
2019-06-20T22:16:31.133Z,5.70
2019-06-20T22:18:57.936Z,5.57
2019-06-20T22:21:24.703Z,5.37
2019-06-20T22:23:51.447Z,5.00
2019-06-20T22:26:18.350Z,5.00
2019-06-20T22:28:45.100Z,5.30
2019-06-20T22:31:11.835Z,5.20
2019-06-20T22:33:38.636Z,5.27
2019-06-20T22:36:05.385Z,5.57
2019-06-20T22:38:33.061Z,5.10
2019-06-20T22:40:59.878Z,5.00
2019-06-20T22:43:26.625Z,5.10
2019-06-20T22:45:53.379Z,4.87
2019-06-20T22:48:20.528Z,5.53
2019-06-20T22:50:47.277Z,5.27
2019-06-20T22:53:14.010Z,5.23
2019-06-20T22:55:40.826Z,5.73
2019-06-20T22:58:07.568Z,5.40
2019-06-20T23:00:34.507Z,4.73
2019-06-20T23:03:01.599Z,5.43
2019-06-20T23:05:28.342Z,4.90
2019-06-20T23:07:55.080Z,4.83
2019-06-20T23:10:21.974Z,5.30
2019-06-20T23:12:48.714Z,5.00
2019-06-20T23:15:15.861Z,4.97
2019-06-20T23:17:42.670Z,5.60
2019-06-20T23:20:10.326Z,4.80
2019-06-20T23:22:37.052Z,5.63
2019-06-20T23:25:07.550Z,4.80
2019-06-20T23:27:34.380Z,5.10
2019-06-20T23:30:01.136Z,5.10
2019-06-20T23:32:27.976Z,4.73
2019-06-20T23:34:54.706Z,5.20
2019-06-20T23:37:21.440Z,6.47
2019-06-20T23:39:48.335Z,6.20
2019-06-20T23:42:15.155Z,5.37
2019-06-20T23:44:41.891Z,5.13
2019-06-20T23:47:08.694Z,5.13
2019-06-20T23:49:35.440Z,4.60
2019-06-20T23:52:02.165Z,4.90
2019-06-20T23:54:29.046Z,5.03
2019-06-20T23:56:57.356Z,4.87
2019-06-20T23:59:24.073Z,4.63
